Time;durP1;ratioP1;P1;durP2;ratioP2;P2;SDS_P1;SDS_P2;PMS_P1;PMS_P2;Temp;Humidity;BMP_temperature;BMP_pressure;BME280_temperature;BME280_humidity;BME280_pressure;Samples;Min_cycle;Max_cycle;Signal;HPM_P1;HPM_P2
2022/10/14 00:01:33;;;;;;;;;42.25;33.75;;;;;16.32;52.43;98744.91;4964474;28;103077;-41
2022/10/14 00:04:00;;;;;;;;;40.25;35.00;;;;;16.31;52.42;98737.78;4962454;28;103300;-42
2022/10/14 00:06:29;;;;;;;;;38.25;34.00;;;;;16.31;52.65;98738.59;4961292;28;104180;-41
2022/10/14 00:09:01;;;;;;;;;45.25;34.50;;;;;16.31;52.95;98732.31;4963904;28;102529;-42
2022/10/14 00:11:29;;;;;;;;;42.75;36.00;;;;;16.31;52.74;98737.78;4964958;28;102451;-42
2022/10/14 00:13:58;;;;;;;;;46.75;35.00;;;;;16.30;52.39;98730.69;4946995;28;102453;-42
2022/10/14 00:16:30;;;;;;;;;40.75;34.00;;;;;16.29;52.66;98721.66;4958513;28;104164;-41
2022/10/14 00:18:57;;;;;;;;;48.50;37.00;;;;;16.28;53.15;98722.72;4957995;28;102710;-42
2022/10/14 00:21:25;;;;;;;;;46.50;35.50;;;;;16.29;52.48;98726.28;4962388;28;102545;-41
2022/10/14 00:23:52;;;;;;;;;39.75;34.00;;;;;16.27;52.10;98714.75;4961716;28;102198;-42
2022/10/14 00:26:21;;;;;;;;;43.25;35.00;;;;;16.27;52.18;98718.31;4956360;28;104060;-42
2022/10/14 00:28:48;;;;;;;;;41.75;35.50;;;;;16.27;52.38;98720.22;4970611;28;102774;-41
2022/10/14 00:31:15;;;;;;;;;43.00;35.00;;;;;16.27;52.83;98709.28;4964915;28;102551;-41
2022/10/14 00:33:42;;;;;;;;;40.25;33.75;;;;;16.26;52.11;98707.63;4966169;28;102574;-42
2022/10/14 00:36:11;;;;;;;;;44.25;35.00;;;;;16.26;53.11;98713.09;4966974;28;103624;-41
2022/10/14 00:38:38;;;;;;;;;35.50;32.25;;;;;16.25;52.53;98708.72;4965823;28;102539;-41
2022/10/14 00:41:05;;;;;;;;;38.50;33.25;;;;;16.25;53.08;98717.72;4966305;28;102228;-41
2022/10/14 00:43:51;;;;;;;;;37.00;32.00;;;;;16.26;52.62;98716.66;4972557;28;103879;-41
2022/10/14 00:46:18;;;;;;;;;40.75;32.25;;;;;16.27;53.16;98712.03;4965482;28;111336;-41
2022/10/14 00:48:45;;;;;;;;;39.75;34.00;;;;;16.26;52.56;98724.00;4968032;28;102230;-41
2022/10/14 00:51:12;;;;;;;;;40.75;34.00;;;;;16.27;52.81;98715.59;4959377;28;103836;-41
2022/10/14 00:53:41;;;;;;;;;33.75;32.25;;;;;16.27;53.03;98709.28;4948897;28;102481;-41
2022/10/14 00:56:11;;;;;;;;;35.50;32.75;;;;;16.27;53.25;98703.84;4963941;28;104106;-41
2022/10/14 00:58:38;;;;;;;;;44.25;35.50;;;;;16.26;52.41;98708.47;4969428;28;102200;-42
2022/10/14 01:01:06;;;;;;;;;39.00;33.25;;;;;16.26;52.30;98707.63;4962180;28;102080;-41
2022/10/14 01:03:33;;;;;;;;;40.75;34.00;;;;;16.24;52.82;98699.69;4970439;28;102211;-42
2022/10/14 01:06:19;;;;;;;;;42.50;33.75;;;;;16.25;53.32;98700.53;4960686;28;108729;-41
2022/10/14 01:09:11;;;;;;;;;36.25;32.75;;;;;16.25;52.91;98697.81;4951867;28;102252;-42
2022/10/14 01:12:32;;;;;;;;;38.75;34.25;;;;;16.25;52.62;98697.81;4967725;28;102270;-42
2022/10/14 01:15:39;;;;;;;;;34.75;33.50;;;;;16.22;52.70;98690.91;4953606;28;102481;-42
2022/10/14 01:18:52;;;;;;;;;37.50;33.50;;;;;16.24;52.92;98687.94;4947483;28;107688;-42
2022/10/14 01:21:46;;;;;;;;;36.75;34.00;;;;;16.23;53.35;98697.19;4969442;28;102475;-41
2022/10/14 01:24:32;;;;;;;;;37.50;33.25;;;;;16.21;52.57;98691.97;4951084;28;102568;-42
2022/10/14 01:27:24;;;;;;;;;37.00;34.00;;;;;16.21;53.27;98694.69;4972112;28;102634;-42
2022/10/14 01:30:17;;;;;;;;;35.25;33.00;;;;;16.22;52.32;98698.25;4966552;28;108867;-41
2022/10/14 01:33:01;;;;;;;;;41.00;33.50;;;;;16.22;52.32;98690.91;4953519;28;101997;-41
2022/10/14 01:35:51;;;;;;;;;36.00;33.00;;;;;16.22;52.56;98690.06;4966718;28;102269;-42
2022/10/14 01:38:41;;;;;;;;;39.50;32.00;;;;;16.21;53.01;98689.22;4971301;28;102317;-41
2022/10/14 01:41:13;;;;;;;;;41.00;31.25;;;;;16.22;53.10;98695.53;4953516;28;109100;-41
2022/10/14 01:43:40;;;;;;;;;40.00;34.50;;;;;16.23;52.29;98691.72;4965842;28;102500;-41
2022/10/14 01:46:07;;;;;;;;;39.50;33.25;;;;;16.22;52.34;98690.91;4947644;28;102568;-41
2022/10/14 01:48:36;;;;;;;;;36.75;32.75;;;;;16.22;52.64;98679.16;4951390;28;102823;-41
2022/10/14 01:51:05;;;;;;;;;33.75;30.50;;;;;16.22;52.84;98684.59;4964567;28;104030;-41
2022/10/14 01:53:36;;;;;;;;;35.75;32.50;;;;;16.20;52.95;98682.13;4954885;28;102475;-41
2022/10/14 01:56:03;;;;;;;;;40.50;34.50;;;;;16.21;52.57;98677.50;4947157;28;102373;-41
2022/10/14 01:58:33;;;;;;;;;43.00;36.25;;;;;16.22;52.77;98679.16;4968832;28;102468;-41
2022/10/14 02:01:02;;;;;;;;;42.00;34.50;;;;;16.20;53.03;98678.56;4965435;28;108915;-42
2022/10/14 02:03:43;;;;;;;;;36.00;33.25;;;;;16.20;52.52;98676.69;4947874;28;102822;-41
2022/10/14 02:06:26;;;;;;;;;42.50;34.00;;;;;16.21;52.91;98672.06;4968516;28;102515;-41
2022/10/14 02:09:05;;;;;;;;;37.50;30.50;;;;;16.19;53.02;98664.09;4958128;28;102525;-41
2022/10/14 02:12:04;;;;;;;;;39.25;33.50;;;;;16.19;52.63;98658.63;4968954;28;108803;-42
2022/10/14 02:14:50;;;;;;;;;37.50;34.00;;;;;16.18;52.48;98662.44;4973264;28;103604;-41
2022/10/14 02:17:17;;;;;;;;;41.25;36.75;;;;;16.19;52.50;98658.63;4969254;28;102427;-41
2022/10/14 02:19:47;;;;;;;;;32.25;31.25;;;;;16.17;52.75;98652.56;4966132;28;104494;-41
2022/10/14 02:22:39;;;;;;;;;33.75;30.50;;;;;16.18;52.29;98656.97;4967704;28;104060;-42
2022/10/14 02:25:20;;;;;;;;;36.50;33.25;;;;;16.19;52.85;98652.34;4957006;28;102296;-41
2022/10/14 02:27:47;;;;;;;;;37.50;31.50;;;;;16.20;53.17;98643.94;4948811;28;102548;-42
2022/10/14 02:30:14;;;;;;;;;37.00;34.00;;;;;16.20;52.46;98648.56;4965114;28;102182;-42
2022/10/14 02:32:41;;;;;;;;;37.75;32.00;;;;;16.20;52.77;98649.41;4960963;28;104205;-41
2022/10/14 02:35:09;;;;;;;;;42.00;34.50;;;;;16.21;52.63;98648.31;4956537;28;102169;-41
2022/10/14 02:37:36;;;;;;;;;40.00;33.50;;;;;16.21;52.12;98650.22;4964366;28;102593;-41
2022/10/14 02:40:28;;;;;;;;;37.25;34.00;;;;;16.20;53.11;98643.09;4957554;28;102585;-41
2022/10/14 02:42:55;;;;;;;;;34.75;31.50;;;;;16.21;52.77;98650.22;4951465;28;109269;-43
2022/10/14 02:45:24;;;;;;;;;32.50;31.75;;;;;16.19;52.76;98641.44;4963861;28;103163;-41
2022/10/14 02:47:51;;;;;;;;;36.75;31.25;;;;;16.19;52.88;98646.88;4963064;28;103770;-42
2022/10/14 02:50:19;;;;;;;;;38.00;31.50;;;;;16.19;52.68;98652.34;4968244;28;102589;-41
2022/10/14 02:52:46;;;;;;;;;36.75;32.25;;;;;16.18;52.58;98646.06;4961106;28;104028;-41
2022/10/14 02:55:13;;;;;;;;;31.25;30.25;;;;;16.18;53.14;98650.69;4966781;28;102692;-41
2022/10/14 02:57:40;;;;;;;;;35.00;32.50;;;;;16.18;52.80;98646.06;4966256;28;102299;-41
2022/10/14 03:00:08;;;;;;;;;35.75;32.25;;;;;16.17;53.12;98649.84;4964966;28;102282;-41
2022/10/14 03:02:35;;;;;;;;;38.50;33.50;;;;;16.16;52.42;98642.75;4965129;28;104079;-41
2022/10/14 03:05:02;;;;;;;;;43.50;35.50;;;;;16.16;52.50;98642.75;4967856;28;102474;-43
2022/10/14 03:07:29;;;;;;;;;36.50;32.25;;;;;16.16;53.11;98647.38;4964340;28;102201;-41
2022/10/14 03:09:57;;;;;;;;;38.00;28.75;;;;;16.15;52.59;98645.69;4968456;28;102243;-41
2022/10/14 03:12:24;;;;;;;;;34.50;32.00;;;;;16.16;52.96;98641.91;4969650;28;104293;-41
2022/10/14 03:14:51;;;;;;;;;39.00;34.00;;;;;16.16;52.29;98636.47;4967728;28;102140;-42
2022/10/14 03:17:18;;;;;;;;;6.75;3.75;;;;;16.17;52.54;98638.09;4958521;28;103888;-41
2022/10/14 03:19:45;;;;;;;;;34.25;28.25;;;;;16.17;52.71;98635.38;4963674;28;102533;-41
2022/10/14 03:22:12;;;;;;;;;29.00;27.75;;;;;16.17;52.76;98638.09;4967841;28;104063;-41
2022/10/14 03:24:39;;;;;;;;;36.75;32.75;;;;;16.18;52.38;98637.88;4962721;28;102371;-41
2022/10/14 03:27:06;;;;;;;;;38.00;33.00;;;;;16.18;53.02;98634.31;4962483;28;102169;-42
2022/10/14 03:29:33;;;;;;;;;36.00;31.00;;;;;16.16;53.02;98631.00;4968788;28;102463;-42
2022/10/14 03:32:00;;;;;;;;;35.25;30.25;;;;;16.17;52.34;98627.19;4965168;28;109882;-42
2022/10/14 03:34:27;;;;;;;;;29.25;29.00;;;;;16.16;52.46;98626.38;4961676;28;102548;-42
2022/10/14 03:36:54;;;;;;;;;31.50;27.25;;;;;16.17;52.71;98630.75;4961387;28;102603;-41
2022/10/14 03:39:21;;;;;;;;;27.75;26.00;;;;;16.16;52.98;98631.84;4967477;28;102997;-41
2022/10/14 03:41:48;;;;;;;;;34.75;31.50;;;;;16.17;52.47;98629.91;4960040;28;104197;-41
2022/10/14 03:44:15;;;;;;;;;39.75;30.00;;;;;16.17;53.20;98629.91;4949092;28;104460;-41
2022/10/14 03:46:42;;;;;;;;;35.75;31.25;;;;;16.15;52.86;98632.06;4969422;28;102384;-41
2022/10/14 03:49:09;;;;;;;;;36.75;30.75;;;;;16.17;52.90;98635.38;4966302;28;102551;-41
2022/10/14 03:51:36;;;;;;;;;38.00;31.00;;;;;16.16;52.83;98636.47;4969525;28;104096;-41
2022/10/14 03:54:03;;;;;;;;;37.25;31.75;;;;;16.15;52.44;98629.34;4963457;28;102114;-43
2022/10/14 03:56:30;;;;;;;;;36.25;32.75;;;;;16.16;52.73;98625.53;4973829;28;102308;-42
2022/10/14 03:58:57;;;;;;;;;34.50;30.75;;;;;16.14;52.29;98620.31;4963200;28;102584;-42
2022/10/14 04:01:24;;;;;;;;;30.50;27.25;;;;;16.15;52.55;98623.88;4957989;28;104189;-41
2022/10/14 04:03:51;;;;;;;;;34.50;31.00;;;;;16.14;52.98;98614.03;4969459;28;102393;-41
2022/10/14 04:06:18;;;;;;;;;30.25;28.75;;;;;16.14;52.33;98622.22;4965688;28;102489;-41
2022/10/14 04:08:45;;;;;;;;;34.50;31.75;;;;;16.13;52.54;98621.38;4964896;28;102638;-42
2022/10/14 04:11:12;;;;;;;;;34.25;30.25;;;;;16.15;52.67;98618.41;4970235;28;104192;-41
2022/10/14 04:13:39;;;;;;;;;24.75;23.00;;;;;16.16;52.19;98620.09;4966275;28;102424;-41
2022/10/14 04:16:07;;;;;;;;;30.25;29.00;;;;;16.16;52.70;98622.81;4963238;28;102499;-41
2022/10/14 04:18:34;;;;;;;;;31.00;27.25;;;;;16.16;52.33;98622.81;4966988;28;102599;-40
2022/10/14 04:21:03;;;;;;;;;30.25;29.25;;;;;16.16;53.36;98625.53;4966528;28;108957;-41
2022/10/14 04:23:30;;;;;;;;;27.50;26.00;;;;;16.17;52.68;98622.56;4963680;28;102174;-43
2022/10/14 04:25:56;;;;;;;;;32.50;29.50;;;;;16.18;52.92;98620.66;4964267;28;102366;-42
2022/10/14 04:28:24;;;;;;;;;32.25;27.50;;;;;16.17;52.88;98619.00;4966345;28;102101;-42
2022/10/14 04:30:51;;;;;;;;;31.50;28.50;;;;;16.17;53.26;98616.28;4962110;28;103502;-41
2022/10/14 04:33:18;;;;;;;;;35.25;31.25;;;;;16.17;52.78;98617.09;4957056;28;102499;-42
2022/10/14 04:35:45;;;;;;;;;27.00;25.75;;;;;16.16;53.23;98615.47;4967153;28;102644;-41
2022/10/14 04:38:11;;;;;;;;;26.50;25.25;;;;;16.18;53.32;98615.22;4962185;28;102462;-41
2022/10/14 04:40:38;;;;;;;;;32.75;29.75;;;;;16.18;53.27;98617.94;4958266;28;104073;-41
2022/10/14 04:43:05;;;;;;;;;31.75;25.50;;;;;16.17;52.81;98608.09;4963945;28;102863;-41
2022/10/14 04:45:32;;;;;;;;;31.50;27.25;;;;;16.16;52.70;98606.44;4960916;28;102827;-42
2022/10/14 04:47:59;;;;;;;;;31.25;26.50;;;;;16.15;52.96;98615.69;4965477;28;102383;-41
2022/10/14 04:50:26;;;;;;;;;32.50;30.00;;;;;16.14;52.74;98611.31;4960410;28;104347;-41
2022/10/14 04:52:53;;;;;;;;;27.00;26.25;;;;;16.14;53.75;98606.69;4965938;28;102419;-41
2022/10/14 04:55:20;;;;;;;;;37.00;31.00;;;;;16.14;52.69;98603.13;4961695;28;102601;-42
2022/10/14 04:57:47;;;;;;;;;33.25;29.00;;;;;16.14;52.43;98600.38;4963268;28;102470;-41
2022/10/14 05:00:14;;;;;;;;;35.75;30.50;;;;;16.13;52.57;98598.72;4961106;28;104143;-42
2022/10/14 05:02:41;;;;;;;;;26.00;24.50;;;;;16.14;52.84;98603.13;4962092;28;102375;-41
2022/10/14 05:05:08;;;;;;;;;30.75;27.75;;;;;16.13;52.67;98594.09;4961085;28;102327;-41
2022/10/14 05:07:35;;;;;;;;;28.75;25.50;;;;;16.13;52.96;98591.38;4961490;28;102733;-41
2022/10/14 05:10:03;;;;;;;;;29.25;25.50;;;;;16.14;53.02;98600.38;4959836;28;104205;-41
2022/10/14 05:12:30;;;;;;;;;31.00;27.00;;;;;16.14;52.73;98603.13;4964620;28;103407;-41
2022/10/14 05:14:57;;;;;;;;;31.50;29.00;;;;;16.13;53.08;98590.53;4970003;28;102670;-41
2022/10/14 05:17:24;;;;;;;;;34.50;29.25;;;;;16.13;53.05;98598.72;4964482;28;102228;-42
2022/10/14 05:19:51;;;;;;;;;28.75;27.25;;;;;16.13;53.19;98598.72;4968090;28;104185;-41
2022/10/14 05:22:18;;;;;;;;;30.75;27.00;;;;;16.13;53.03;98590.53;4968887;28;102286;-41
2022/10/14 05:24:46;;;;;;;;;27.25;26.50;;;;;16.13;53.07;98594.09;4969084;28;102014;-42
2022/10/14 05:27:13;;;;;;;;;28.50;26.75;;;;;16.13;53.26;98590.53;4968794;28;102358;-41
2022/10/14 05:29:40;;;;;;;;;33.75;30.00;;;;;16.12;52.93;98586.97;4972973;28;105467;-41
2022/10/14 05:32:07;;;;;;;;;30.75;29.75;;;;;16.12;53.13;98592.44;4955878;28;102264;-41
2022/10/14 05:34:34;;;;;;;;;29.00;27.50;;;;;16.12;53.22;98595.16;4973362;28;102408;-41
2022/10/14 05:37:02;;;;;;;;;32.25;29.00;;;;;16.12;52.62;98597.09;4952172;28;102230;-42
2022/10/14 05:39:29;;;;;;;;;26.50;24.75;;;;;16.12;53.08;98586.16;4941197;28;102610;-41
2022/10/14 05:41:56;;;;;;;;;30.50;27.75;;;;;16.12;52.42;98594.34;4944912;28;102153;-42
2022/10/14 05:44:23;;;;;;;;;25.25;23.75;;;;;16.13;53.33;98598.72;4952050;28;102372;-41
2022/10/14 05:46:50;;;;;;;;;34.25;28.25;;;;;16.12;52.70;98591.63;4947725;28;102244;-42
2022/10/14 05:49:17;;;;;;;;;30.50;26.75;;;;;16.10;52.99;98591.84;4947913;28;104252;-41
2022/10/14 05:51:44;;;;;;;;;30.25;27.75;;;;;16.12;52.76;98597.09;4946476;28;102354;-41
2022/10/14 05:54:11;;;;;;;;;27.25;26.00;;;;;16.11;52.50;98598.97;4948772;28;102552;-41
2022/10/14 05:56:38;;;;;;;;;26.25;24.00;;;;;16.12;52.69;98595.16;4948586;28;102638;-41
2022/10/14 05:59:05;;;;;;;;;26.00;22.25;;;;;16.13;53.13;98598.72;4946087;28;104084;-40
2022/10/14 06:01:35;;;;;;;;;27.75;27.75;;;;;16.13;52.37;98602.28;4947017;28;102436;-41
2022/10/14 06:04:02;;;;;;;;;27.25;25.25;;;;;16.13;53.08;98607.75;4949544;28;102394;-42
2022/10/14 06:06:29;;;;;;;;;29.25;27.75;;;;;16.13;53.30;98598.72;4957357;28;102137;-42
2022/10/14 06:08:56;;;;;;;;;27.50;24.50;;;;;16.14;53.07;98600.38;4940781;28;104200;-42
2022/10/14 06:11:23;;;;;;;;;32.00;29.75;;;;;16.13;53.00;98605.00;4940854;28;102906;-42
2022/10/14 06:13:51;;;;;;;;;25.50;22.50;;;;;16.13;52.91;98606.91;4947592;28;102137;-41
2022/10/14 06:16:18;;;;;;;;;31.00;27.75;;;;;16.12;52.42;98606.06;4924914;28;102387;-42
2022/10/14 06:18:45;;;;;;;;;34.25;29.75;;;;;16.12;53.16;98600.63;4941451;28;104061;-42
2022/10/14 06:21:17;;;;;;;;;29.75;27.00;;;;;16.12;52.57;98602.53;4946857;28;102194;-42
2022/10/14 06:23:44;;;;;;;;;33.00;30.25;;;;;16.13;52.36;98609.63;4943647;28;102457;-41
2022/10/14 06:26:11;;;;;;;;;30.50;27.50;;;;;16.13;52.65;98604.19;4941570;28;102614;-41
2022/10/14 06:28:38;;;;;;;;;26.50;24.25;;;;;16.12;53.00;98608.78;4944259;28;104089;-41
2022/10/14 06:31:05;;;;;;;;;29.75;28.25;;;;;16.14;52.75;98612.13;4944903;28;102896;-41
2022/10/14 06:33:32;;;;;;;;;29.25;27.25;;;;;16.14;52.81;98606.69;4941542;28;102271;-41
2022/10/14 06:36:03;;;;;;;;;31.00;28.00;;;;;16.15;52.56;98604.78;4949466;28;102354;-41
2022/10/14 06:38:30;;;;;;;;;29.50;25.25;;;;;16.16;52.83;98601.00;4944502;28;103973;-41
2022/10/14 06:40:57;;;;;;;;;30.25;28.50;;;;;16.14;52.49;98600.38;4942057;28;102343;-42
2022/10/14 06:43:24;;;;;;;;;30.00;28.50;;;;;16.14;52.48;98606.69;4946679;28;102483;-42
2022/10/14 06:45:51;;;;;;;;;34.50;30.00;;;;;16.14;53.09;98603.13;4931523;28;102451;-41
2022/10/14 06:48:18;;;;;;;;;31.50;25.25;;;;;16.17;53.06;98608.91;4944372;28;103982;-41
2022/10/14 06:50:45;;;;;;;;;31.50;27.25;;;;;16.17;52.63;98610.81;4942781;28;102420;-41
2022/10/14 06:53:12;;;;;;;;;32.25;27.25;;;;;16.18;52.36;98615.22;4949799;28;102453;-41
2022/10/14 06:55:39;;;;;;;;;35.50;29.75;;;;;16.18;53.23;98612.47;4947288;28;102385;-41
2022/10/14 06:58:06;;;;;;;;;29.50;26.50;;;;;16.20;52.87;98618.53;4944820;28;104166;-40
2022/10/14 07:00:33;;;;;;;;;30.25;28.00;;;;;16.20;52.58;98615.81;4947026;28;102654;-42
2022/10/14 07:03:00;;;;;;;;;33.75;29.50;;;;;16.22;52.56;98613.66;4953081;28;102161;-42
2022/10/14 07:05:27;;;;;;;;;33.00;28.50;;;;;16.21;52.97;98607.38;4947493;28;102701;-41
2022/10/14 07:07:56;;;;;;;;;28.50;27.00;;;;;16.23;52.59;98616.16;4944164;28;104067;-42
2022/10/14 07:10:23;;;;;;;;;33.50;27.75;;;;;16.24;52.40;98617.00;4947672;28;102153;-42
2022/10/14 07:12:54;;;;;;;;;27.25;24.50;;;;;16.25;52.54;98613.22;4946246;28;102488;-41
2022/10/14 07:15:21;;;;;;;;;28.50;28.25;;;;;16.25;52.73;98613.22;4945579;28;102463;-41
2022/10/14 07:17:48;;;;;;;;;27.50;26.75;;;;;16.25;52.43;98614.06;4945210;28;103989;-42
2022/10/14 07:20:15;;;;;;;;;32.75;31.25;;;;;16.26;52.43;98617.59;4946463;28;102770;-41
2022/10/14 07:22:42;;;;;;;;;28.50;26.75;;;;;16.26;52.66;98612.97;4942142;28;102514;-42
2022/10/14 07:25:10;;;;;;;;;29.00;26.25;;;;;16.28;52.04;98620.91;4948825;28;102375;-41
2022/10/14 07:27:37;;;;;;;;;33.00;26.50;;;;;16.28;52.30;98623.66;4941780;28;103989;-41
2022/10/14 07:30:04;;;;;;;;;34.25;31.25;;;;;16.29;52.60;98631.59;4949969;28;102384;-42
2022/10/14 07:32:35;;;;;;;;;30.50;26.50;;;;;16.29;53.13;98625.31;4960289;28;102493;-42
2022/10/14 07:35:03;;;;;;;;;29.50;24.50;;;;;16.28;52.13;98624.47;4945733;28;102568;-41
2022/10/14 07:37:30;;;;;;;;;29.50;26.00;;;;;16.30;52.87;98624.25;4948832;28;104361;-41
2022/10/14 07:39:57;;;;;;;;;34.50;29.50;;;;;16.31;52.60;98617.72;4950223;28;103759;-42
2022/10/14 07:42:24;;;;;;;;;32.00;27.25;;;;;16.32;52.56;98620.22;4942940;28;102642;-41
2022/10/14 07:44:52;;;;;;;;;34.25;29.25;;;;;16.34;52.73;98614.53;4943196;28;102573;-41
2022/10/14 07:47:20;;;;;;;;;30.75;27.00;;;;;16.35;53.28;98624.34;4941282;28;104528;-42
2022/10/14 07:49:47;;;;;;;;;30.50;26.50;;;;;16.34;53.46;98625.44;4946637;28;102381;-41
2022/10/14 07:52:14;;;;;;;;;29.75;27.25;;;;;16.34;53.03;98623.53;4943991;28;102711;-41
2022/10/14 07:54:41;;;;;;;;;28.00;25.50;;;;;16.36;53.17;98620.56;4951787;28;102255;-41
2022/10/14 07:57:08;;;;;;;;;29.50;26.25;;;;;16.35;53.41;98616.16;4943235;28;104066;-41
2022/10/14 07:59:35;;;;;;;;;30.00;25.75;;;;;16.34;53.25;98617.25;4944788;28;102412;-41
2022/10/14 08:02:03;;;;;;;;;31.50;26.00;;;;;16.35;53.60;98618.88;4943175;28;102779;-41
2022/10/14 08:04:30;;;;;;;;;33.25;28.25;;;;;16.36;53.78;98626.00;4947262;28;102367;-41
2022/10/14 08:06:57;;;;;;;;;25.00;24.00;;;;;16.36;53.05;98623.28;4950831;28;104058;-41
2022/10/14 08:09:24;;;;;;;;;21.00;17.75;;;;;16.36;53.72;98615.94;4954652;28;102330;-41
2022/10/14 08:11:55;;;;;;;;;27.75;24.25;;;;;16.37;53.20;98623.06;4945518;28;102589;-41
2022/10/14 08:14:22;;;;;;;;;29.75;27.50;;;;;16.37;53.86;98623.06;4952463;28;102182;-41
2022/10/14 08:16:49;;;;;;;;;27.75;24.75;;;;;16.37;53.57;98623.06;4943635;28;104060;-41
2022/10/14 08:19:17;;;;;;;;;29.25;26.50;;;;;16.38;53.17;98630.19;4953637;28;102588;-41
2022/10/14 08:21:44;;;;;;;;;31.75;27.25;;;;;16.38;52.77;98629.34;4951667;28;103326;-41
2022/10/14 08:24:11;;;;;;;;;30.50;27.00;;;;;16.39;53.96;98625.56;4955230;28;102387;-41
2022/10/14 08:26:48;;;;;;;;;30.00;25.25;;;;;16.39;54.01;98625.56;4953426;28;104041;-41
2022/10/14 08:29:16;;;;;;;;;31.75;28.00;;;;;16.39;53.03;98625.56;4954158;28;102328;-41
2022/10/14 08:31:43;;;;;;;;;30.50;28.00;;;;;16.40;53.17;98619.00;4955331;28;102227;-41
2022/10/14 08:34:10;;;;;;;;;28.25;24.75;;;;;16.41;53.31;98626.97;4953959;28;102453;-41
2022/10/14 08:36:37;;;;;;;;;30.25;25.25;;;;;16.41;53.11;98623.41;4952301;28;104080;-40
2022/10/14 08:39:05;;;;;;;;;32.75;29.00;;;;;16.42;53.15;98625.06;4955543;28;102482;-42
2022/10/14 08:41:57;;;;;;;;;25.75;25.00;;;;;16.43;53.65;98632.19;4954263;28;102447;-42
2022/10/14 08:44:30;;;;;;;;;25.00;25.00;;;;;16.44;52.72;98620.19;4953178;28;102141;-41
2022/10/14 08:47:01;;;;;;;;;24.00;22.75;;;;;16.45;53.43;98616.41;4952986;28;104045;-42
2022/10/14 08:49:52;;;;;;;;;27.50;25.75;;;;;16.47;53.30;98623.28;4931120;28;102555;-42
2022/10/14 08:52:26;;;;;;;;;27.75;24.75;;;;;16.47;52.96;98612.38;4952873;28;102383;-41
2022/10/14 08:54:56;;;;;;;;;25.00;23.00;;;;;16.49;53.30;98612.13;4957828;28;102278;-41
2022/10/14 08:57:28;;;;;;;;;28.50;24.75;;;;;16.50;53.29;98613.78;4956413;28;104308;-42
2022/10/14 08:59:55;;;;;;;;;24.00;23.50;;;;;16.50;53.22;98614.63;4940457;28;102324;-41
2022/10/14 09:02:28;;;;;;;;;24.25;23.50;;;;;16.50;52.91;98622.81;4958183;28;102507;-41
2022/10/14 09:04:56;;;;;;;;;23.50;23.50;;;;;16.51;52.97;98615.47;4958910;28;102643;-41
2022/10/14 09:07:23;;;;;;;;;17.25;16.50;;;;;16.52;53.34;98617.13;4955945;28;104224;-41
2022/10/14 09:09:55;;;;;;;;;29.25;26.50;;;;;16.51;53.28;98616.28;4953656;28;102574;-41
2022/10/14 09:12:27;;;;;;;;;29.00;26.00;;;;;16.52;53.13;98614.41;4958086;28;102386;-41
2022/10/14 09:15:05;;;;;;;;;26.00;24.25;;;;;16.53;53.38;98616.03;4956864;28;102293;-41
2022/10/14 09:17:35;;;;;;;;;25.25;24.75;;;;;16.53;53.75;98616.03;4940118;28;109096;-42
2022/10/14 09:20:20;;;;;;;;;29.25;23.00;;;;;16.54;53.72;98617.69;4933530;28;102317;-42
2022/10/14 09:23:05;;;;;;;;;29.25;25.25;;;;;16.53;53.35;98614.13;4948081;28;102549;-41
2022/10/14 09:25:33;;;;;;;;;27.00;25.75;;;;;16.55;53.50;98618.53;4955024;28;103047;-41
2022/10/14 09:28:00;;;;;;;;;24.75;22.50;;;;;16.54;53.74;98617.69;4952885;28;104217;-41
2022/10/14 09:30:28;;;;;;;;;25.75;23.75;;;;;16.54;53.60;98623.16;4955920;28;102149;-42
2022/10/14 09:32:56;;;;;;;;;26.00;23.25;;;;;16.55;53.40;98624.81;4953878;28;102414;-42
2022/10/14 09:35:31;;;;;;;;;22.75;21.25;;;;;16.56;53.23;98628.38;4956538;28;102470;-41
2022/10/14 09:37:58;;;;;;;;;25.50;23.25;;;;;16.56;53.99;98626.50;4950518;28;104101;-41
2022/10/14 09:40:35;;;;;;;;;28.00;24.50;;;;;16.55;53.96;98624.81;4954199;28;103288;-43
2022/10/14 09:43:08;;;;;;;;;27.50;23.75;;;;;16.57;53.94;98622.66;4954659;28;103264;-41
2022/10/14 09:45:58;;;;;;;;;26.50;25.25;;;;;16.57;53.38;98616.41;4955328;28;102338;-41
2022/10/14 09:48:31;;;;;;;;;25.00;23.75;;;;;16.57;53.35;98619.94;4946889;28;108843;-41
2022/10/14 09:50:59;;;;;;;;;25.25;23.50;;;;;16.58;52.94;98629.81;4943478;28;102510;-42
2022/10/14 09:53:36;;;;;;;;;23.75;23.75;;;;;16.58;53.96;98618.91;4945110;28;102407;-42
2022/10/14 09:56:05;;;;;;;;;27.50;17.75;;;;;16.59;53.24;98619.75;4942043;28;102721;-42
2022/10/14 09:58:37;;;;;;;;;20.00;20.00;;;;;16.58;54.23;98624.38;4948611;28;104099;-41
2022/10/14 10:01:05;;;;;;;;;21.00;20.25;;;;;16.58;54.05;98616.19;4944930;28;102374;-43
2022/10/14 10:03:33;;;;;;;;;25.75;22.00;;;;;16.59;53.93;98620.56;4947695;28;102358;-41
2022/10/14 10:06:06;;;;;;;;;23.25;19.25;;;;;16.59;54.99;98615.13;4944346;28;102281;-41
2022/10/14 10:08:41;;;;;;;;;28.75;24.00;;;;;16.61;55.35;98617.63;4947756;28;104054;-42
2022/10/14 10:11:12;;;;;;;;;22.25;20.50;;;;;16.62;55.43;98611.06;4949016;28;102206;-42
2022/10/14 10:13:45;;;;;;;;;21.75;19.75;;;;;16.62;54.30;98614.63;4948365;28;102473;-41
2022/10/14 10:16:20;;;;;;;;;24.75;23.00;;;;;16.63;54.66;98615.47;4943372;28;102129;-41
2022/10/14 10:18:48;;;;;;;;;24.75;21.00;;;;;16.64;54.95;98608.94;4946905;28;104131;-41
2022/10/14 10:21:25;;;;;;;;;25.00;23.00;;;;;16.65;55.11;98619.63;4942558;28;102116;-42
2022/10/14 10:23:56;;;;;;;;;27.00;22.50;;;;;16.66;55.17;98615.00;4940308;28;102876;-41
2022/10/14 10:26:30;;;;;;;;;22.25;20.25;;;;;16.66;55.21;98609.53;4947086;28;102609;-41
2022/10/14 10:28:58;;;;;;;;;25.25;23.00;;;;;16.66;55.20;98606.81;4941491;28;104277;-41
2022/10/14 10:31:49;;;;;;;;;26.25;22.75;;;;;16.67;55.50;98600.25;4946376;28;102466;-41
2022/10/14 10:34:35;;;;;;;;;22.25;22.00;;;;;16.67;54.99;98603.81;4947276;28;102414;-41
2022/10/14 10:37:07;;;;;;;;;26.50;21.00;;;;;16.67;55.07;98589.34;4949497;28;102372;-42
2022/10/14 10:39:40;;;;;;;;;19.50;19.00;;;;;16.67;54.60;98595.63;4932794;28;104149;-41
2022/10/14 10:42:29;;;;;;;;;21.50;20.50;;;;;16.68;55.64;98594.56;4949508;28;102584;-41
2022/10/14 10:45:10;;;;;;;;;21.75;21.50;;;;;16.69;54.84;98593.50;4948262;28;102576;-41
2022/10/14 10:47:44;;;;;;;;;20.75;19.00;;;;;16.69;55.24;98593.50;4946402;28;102376;-41
2022/10/14 10:50:29;;;;;;;;;23.25;21.25;;;;;16.70;54.91;98584.25;4943030;28;108865;-41
2022/10/14 10:53:10;;;;;;;;;21.50;20.25;;;;;16.71;54.79;98591.34;4944417;28;102790;-42
2022/10/14 10:55:48;;;;;;;;;23.50;23.00;;;;;16.69;55.50;98588.03;4948659;28;102598;-42
2022/10/14 10:58:41;;;;;;;;;20.50;18.75;;;;;16.70;55.06;98584.25;4947495;28;103283;-41
2022/10/14 11:01:29;;;;;;;;;22.00;20.50;;;;;16.71;55.71;98580.44;4946789;28;109087;-42
2022/10/14 11:04:31;;;;;;;;;18.75;18.50;;;;;16.72;54.96;98575.78;4944650;28;102146;-41
2022/10/14 11:13:37;;;;;;;;;17.25;16.50;;;;;16.74;55.47;98569.03;4946863;28;108810;-42
2022/10/14 11:16:32;;;;;;;;;20.00;18.75;;;;;16.77;55.11;98562.25;4940920;28;102443;-41
2022/10/14 11:19:34;;;;;;;;;22.25;21.00;;;;;16.77;55.24;98562.25;4941666;28;102342;-43
2022/10/14 11:22:16;;;;;;;;;21.00;19.00;;;;;16.77;54.91;98565.00;4942357;28;103095;-41
2022/10/14 11:24:53;;;;;;;;;20.25;19.00;;;;;16.78;55.53;98563.94;4934642;28;108930;-41
2022/10/14 11:27:46;;;;;;;;;19.00;18.50;;;;;16.78;55.40;98562.03;4949654;28;104458;-43
2022/10/14 11:30:16;;;;;;;;;17.25;16.00;;;;;16.79;55.77;98560.13;4939909;28;102392;-41
2022/10/14 11:33:14;;;;;;;;;22.00;19.00;;;;;16.81;55.74;98558.81;4931811;28;102555;-41
2022/10/14 11:35:50;;;;;;;;;22.00;20.75;;;;;16.81;55.96;98553.34;4946538;28;110100;-41